Aegean Tiffany — SVAE9 — position and weather

sailwx.info

Track history (hours):
 
Tides and Currents Weather Stations Pressure Air Temp Water Temp Dewpoint Dewpoint Depression Visibility Wind Speed Wind Dir Waves Ship Positions

Aegean Tiffany

Last reported at 2016-Dec-06 14:34 UTC. Time now 2016-Dec-07 10:39 UTC.
Position N 38°02' E 023°32'.

Length 80 m.

Type: Tanker. MMSI: 240870000.

Date/timePositionNaut miles runAvg speedWind from/ knotsBaromVisibWave heightAir tempDewpointWater temp
2016-Dec-06 14:34N 38°02' E 023°32'0 0.0
2016-Dec-06 13:34N 38°02' E 023°32'0 0.0
2016-Dec-06 12:33N 38°02' E 023°32'0 0.0
2016-Dec-06 11:33N 38°02' E 023°32'0 0.0
2016-Dec-06 10:34N 38°02' E 023°32'0 0.0
2016-Dec-06 09:34N 38°02' E 023°32'0 0.0
2016-Dec-06 08:33N 38°02' E 023°32'0 0.0
2016-Dec-06 07:33N 38°02' E 023°32'  
2016-Dec-03 10:33N 38°02' E 023°32'0 0.0
2016-Dec-02 15:33N 38°02' E 023°32'6 5.7
2016-Dec-02 14:33N 37°57' E 023°35'1 1.0
2016-Dec-02 13:08N 37°57' E 023°37'0 0.0
2016-Dec-02 12:18N 37°57' E 023°37'0 0.0
2016-Dec-02 11:33N 37°57' E 023°37'0 0.2
2016-Dec-02 09:33N 37°57' E 023°36'7 6.7
2016-Dec-02 08:33N 38°02' E 023°32'0 0.0
2016-Dec-02 07:33N 38°02' E 023°32'4 3.8
2016-Dec-02 06:33N 38°00' E 023°28'7 7.1
2016-Dec-02 05:34N 37°56' E 023°20'9 8.6
2016-Dec-02 04:33N 37°55' E 023°10'  
2016-Nov-26 22:33N 37°55' E 023°08'8 8.0
2016-Nov-26 21:33N 37°55' E 023°18'7 6.6
2016-Nov-26 20:33N 37°59' E 023°25'7 6.7
2016-Nov-26 19:33N 38°02' E 023°32'0 0.0
2016-Nov-26 18:33N 38°02' E 023°32'  
Track history (hours):
 
Tides and Currents Weather Stations Pressure Air Temp Water Temp Dewpoint Dewpoint Depression Visibility Wind Speed Wind Dir Waves Ship Positions

Aegean Tiffany

Last reported at 2016-Dec-06 14:34 UTC. Time now 2016-Dec-07 10:39 UTC.
Position N 38°02' E 023°32'.

Length 80 m.

Type: Tanker. MMSI: 240870000.

Date/timePositionNaut miles runAvg speedWind from/ knotsBaromVisibWave heightAir tempDewpointWater temp
2016-Dec-06 14:34N 38°02' E 023°32'0 0.0
2016-Dec-06 13:34N 38°02' E 023°32'0 0.0
2016-Dec-06 12:33N 38°02' E 023°32'0 0.0
2016-Dec-06 11:33N 38°02' E 023°32'0 0.0
2016-Dec-06 10:34N 38°02' E 023°32'0 0.0
2016-Dec-06 09:34N 38°02' E 023°32'0 0.0
2016-Dec-06 08:33N 38°02' E 023°32'0 0.0
2016-Dec-06 07:33N 38°02' E 023°32'  
2016-Dec-03 10:33N 38°02' E 023°32'0 0.0
2016-Dec-02 15:33N 38°02' E 023°32'6 5.7
2016-Dec-02 14:33N 37°57' E 023°35'1 1.0
2016-Dec-02 13:08N 37°57' E 023°37'0 0.0
2016-Dec-02 12:18N 37°57' E 023°37'0 0.0
2016-Dec-02 11:33N 37°57' E 023°37'0 0.2
2016-Dec-02 09:33N 37°57' E 023°36'7 6.7
2016-Dec-02 08:33N 38°02' E 023°32'0 0.0
2016-Dec-02 07:33N 38°02' E 023°32'4 3.8
2016-Dec-02 06:33N 38°00' E 023°28'7 7.1
2016-Dec-02 05:34N 37°56' E 023°20'9 8.6
2016-Dec-02 04:33N 37°55' E 023°10'  
2016-Nov-26 22:33N 37°55' E 023°08'8 8.0
2016-Nov-26 21:33N 37°55' E 023°18'7 6.6
2016-Nov-26 20:33N 37°59' E 023°25'7 6.7
2016-Nov-26 19:33N 38°02' E 023°32'0 0.0
2016-Nov-26 18:33N 38°02' E 023°32'  

Dump ship's entire track history